Time;durP1;ratioP1;P1;durP2;ratioP2;P2;SDS_P1;SDS_P2;PMS_P1;PMS_P2;Temp;Humidity;BMP_temperature;BMP_pressure;BME280_temperature;BME280_humidity;BME280_pressure;Samples;Min_cycle;Max_cycle;Signal;HPM_P1;HPM_P2
2023/08/10 00:00:50;;;;;;;5.55;2.75;;;16.10;1.00;;;;;;5011640;28;20192;-79
2023/08/10 00:03:17;;;;;;;5.43;3.05;;;16.20;99.90;;;;;;5011797;28;20204;-79
2023/08/10 00:05:45;;;;;;;5.38;3.22;;;16.10;1.00;;;;;;5028475;28;20200;-79
2023/08/10 00:08:12;;;;;;;7.28;3.38;;;15.90;99.90;;;;;;4995756;28;20200;-79
2023/08/10 00:10:40;;;;;;;5.78;3.70;;;15.70;1.00;;;;;;4993958;28;20249;-79
2023/08/10 00:13:08;;;;;;;4.40;2.72;;;15.70;1.00;;;;;;5002828;28;20211;-79
2023/08/10 00:15:37;;;;;;;6.45;3.45;;;15.90;1.00;;;;;;5012017;28;20208;-79
2023/08/10 00:18:06;;;;;;;7.45;3.75;;;15.90;99.90;;;;;;4988509;28;20207;-79
2023/08/10 00:20:34;;;;;;;4.78;3.08;;;15.90;99.90;;;;;;4994982;28;20227;-79
2023/08/10 00:23:02;;;;;;;4.75;3.35;;;15.80;99.90;;;;;;5019950;28;20192;-79
2023/08/10 00:25:29;;;;;;;3.65;3.08;;;15.90;99.90;;;;;;5013813;28;20559;-79
2023/08/10 00:27:57;;;;;;;5.75;2.80;;;15.90;1.00;;;;;;5008878;28;20198;-79
2023/08/10 00:30:26;;;;;;;6.20;2.80;;;15.90;1.00;;;;;;5019446;28;20220;-79
2023/08/10 00:32:55;;;;;;;3.92;2.60;;;15.90;1.00;;;;;;5036514;28;20191;-79
2023/08/10 00:35:23;;;;;;;3.40;2.63;;;16.00;1.00;;;;;;5016628;28;20226;-79
2023/08/10 00:37:51;;;;;;;5.25;3.17;;;16.00;1.00;;;;;;5003191;28;20207;-79
2023/08/10 00:40:19;;;;;;;4.53;2.80;;;15.90;1.00;;;;;;4994724;28;20235;-79
2023/08/10 00:42:46;;;;;;;8.95;2.75;;;15.90;1.00;;;;;;4998245;28;20207;-79
2023/08/10 00:45:14;;;;;;;4.95;3.00;;;15.90;1.00;;;;;;5025908;28;20195;-79
2023/08/10 00:47:42;;;;;;;4.47;2.80;;;15.90;1.00;;;;;;5013713;28;20514;-79
2023/08/10 00:50:11;;;;;;;4.15;3.10;;;15.80;1.00;;;;;;5023098;28;20223;-79
2023/08/10 00:52:38;;;;;;;5.63;3.17;;;15.50;1.00;;;;;;5013859;28;20214;-79
2023/08/10 00:55:07;;;;;;;3.90;2.67;;;15.50;1.00;;;;;;4989545;28;20220;-79
2023/08/10 00:57:34;;;;;;;6.38;3.05;;;15.70;25.50;;;;;;5017611;28;20202;-79
2023/08/10 01:00:05;;;;;;;5.90;2.97;;;15.70;1.00;;;;;;5005854;28;20227;-79
2023/08/10 01:02:33;;;;;;;4.72;2.75;;;15.80;1.00;;;;;;5002895;28;20210;-79
2023/08/10 01:05:00;;;;;;;6.18;3.17;;;15.80;1.00;;;;;;5008057;28;20702;-79
2023/08/10 01:07:45;;;;;;;8.77;3.47;;;15.80;1.00;;;;;;4995412;28;20208;-79
2023/08/10 01:10:20;;;;;;;5.93;3.40;;;15.80;1.00;;;;;;4998155;28;20215;-79
2023/08/10 01:12:54;;;;;;;4.30;3.53;;;15.60;1.00;;;;;;5021584;28;20202;-79
2023/08/10 01:15:30;;;;;;;8.50;4.20;;;15.70;1.00;;;;;;5021871;28;20219;-79
2023/08/10 01:18:00;;;;;;;4.40;3.35;;;15.60;1.00;;;;;;5008307;28;20217;-79
2023/08/10 01:20:30;;;;;;;5.35;3.83;;;15.60;1.00;;;;;;4992290;28;20247;-79
2023/08/10 01:23:11;;;;;;;6.35;3.80;;;15.60;1.00;;;;;;5013298;28;20649;-79
2023/08/10 01:25:42;;;;;;;8.75;3.75;;;15.70;1.00;;;;;;5004145;28;20199;-79
2023/08/10 01:28:12;;;;;;;6.25;3.08;;;15.70;1.00;;;;;;5008918;28;20707;-79
2023/08/10 01:30:40;;;;;;;8.05;3.60;;;15.60;1.00;;;;;;4998002;28;20212;-79
2023/08/10 01:33:08;;;;;;;5.25;3.58;;;15.70;1.00;;;;;;5011456;28;20696;-79
2023/08/10 01:35:37;;;;;;;6.35;3.80;;;15.80;1.00;;;;;;5025591;28;20222;-79
2023/08/10 01:38:04;;;;;;;7.05;2.88;;;15.80;1.00;;;;;;5023163;28;20199;-79
2023/08/10 01:40:32;;;;;;;4.93;3.50;;;15.60;1.00;;;;;;5006135;28;20239;-79
2023/08/10 01:43:03;;;;;;;5.60;3.92;;;15.50;1.00;;;;;;5032146;28;20202;-78
2023/08/10 01:45:30;;;;;;;4.93;3.88;;;15.40;1.00;;;;;;5001663;28;20214;-79
2023/08/10 01:48:03;;;;;;;5.00;4.22;;;15.60;1.00;;;;;;5021976;28;20187;-79
2023/08/10 01:50:34;;;;;;;6.10;3.80;;;15.50;1.00;;;;;;5020280;28;21016;-79
2023/08/10 01:53:06;;;;;;;4.35;3.45;;;15.60;1.00;;;;;;5014843;28;20192;-79
2023/08/10 01:55:34;;;;;;;5.13;2.80;;;15.70;1.00;;;;;;5019412;28;20229;-79
2023/08/10 01:58:03;;;;;;;6.97;3.50;;;15.70;10.50;;;;;;5018017;28;20195;-79
2023/08/10 02:00:31;;;;;;;4.47;3.55;;;15.70;18.10;;;;;;5001048;28;20723;-79
2023/08/10 02:02:58;;;;;;;5.03;2.95;;;15.50;31.20;;;;;;4999296;28;20199;-79
2023/08/10 02:05:26;;;;;;;5.60;3.53;;;15.60;99.90;;;;;;4996497;28;20204;-79
2023/08/10 02:07:53;;;;;;;6.20;3.80;;;15.60;62.40;;;;;;4996575;28;20816;-79
2023/08/10 02:10:21;;;;;;;6.72;4.20;;;15.60;1.00;;;;;;5007684;28;20234;-79
2023/08/10 02:12:48;;;;;;;5.85;3.55;;;15.60;1.00;;;;;;4995145;28;20211;-79
2023/08/10 02:15:17;;;;;;;4.50;3.08;;;15.70;1.00;;;;;;4995082;28;20223;-79
2023/08/10 02:17:45;;;;;;;6.13;3.45;;;15.80;64.60;;;;;;4992443;28;20211;-79
2023/08/10 02:20:13;;;;;;;5.03;3.28;;;15.80;88.50;;;;;;4993234;28;20220;-79
2023/08/10 02:22:42;;;;;;;4.95;3.40;;;15.70;99.90;;;;;;4999978;28;20200;-79
2023/08/10 02:25:10;;;;;;;5.53;3.45;;;15.70;99.90;;;;;;5043252;28;20218;-79
2023/08/10 02:27:39;;;;;;;5.10;3.05;;;15.70;99.90;;;;;;4994539;28;20208;-79
2023/08/10 02:30:08;;;;;;;4.40;3.35;;;15.70;99.90;;;;;;4990105;28;20227;-79
2023/08/10 02:32:38;;;;;;;4.18;3.28;;;15.60;99.90;;;;;;5035947;28;20204;-79
2023/08/10 02:35:06;;;;;;;5.47;3.53;;;15.50;99.90;;;;;;4993732;28;20221;-79
2023/08/10 02:37:34;;;;;;;5.13;3.45;;;15.50;99.90;;;;;;5008583;28;20211;-79
2023/08/10 02:40:02;;;;;;;7.60;3.75;;;15.50;99.90;;;;;;5010749;28;20223;-79
2023/08/10 02:42:30;;;;;;;3.40;3.00;;;15.50;86.40;;;;;;5009414;28;20319;-79
2023/08/10 02:44:57;;;;;;;7.60;3.17;;;15.60;70.00;;;;;;5027856;28;20206;-79
2023/08/10 02:47:25;;;;;;;5.53;3.30;;;15.60;12.10;;;;;;4995573;28;20662;-79
2023/08/10 02:49:54;;;;;;;9.48;3.97;;;15.70;1.00;;;;;;5010615;28;20224;-79
2023/08/10 02:52:22;;;;;;;7.70;3.42;;;15.50;95.30;;;;;;4988265;28;20196;-79
2023/08/10 02:54:49;;;;;;;8.05;4.00;;;15.60;99.90;;;;;;5007568;28;20250;-79
2023/08/10 02:57:16;;;;;;;4.43;3.42;;;15.60;99.90;;;;;;5025533;28;20207;-79
2023/08/10 02:59:44;;;;;;;6.63;3.80;;;15.50;99.90;;;;;;4996246;28;20216;-78
2023/08/10 03:02:12;;;;;;;6.85;3.90;;;15.50;70.30;;;;;;4994402;28;20207;-79
2023/08/10 03:04:40;;;;;;;5.53;4.10;;;15.40;2.70;;;;;;4993608;28;20642;-78
2023/08/10 03:07:10;;;;;;;5.35;3.97;;;15.40;23.00;;;;;;4997083;28;20194;-78
2023/08/10 03:09:38;;;;;;;5.22;3.67;;;15.50;52.60;;;;;;5011050;28;20226;-81
2023/08/10 03:12:05;;;;;;;6.30;4.10;;;15.70;24.80;;;;;;5003969;28;20200;-79
2023/08/10 03:14:33;;;;;;;7.00;3.78;;;15.60;54.90;;;;;;4991132;28;22308;-78
2023/08/10 03:17:00;;;;;;;6.13;3.83;;;15.40;99.90;;;;;;5007474;28;20200;-78
2023/08/10 03:19:28;;;;;;;5.60;3.90;;;15.30;99.90;;;;;;4994642;28;20219;-78
2023/08/10 03:21:55;;;;;;;7.07;4.00;;;15.10;99.90;;;;;;5010405;28;20203;-78
2023/08/10 03:24:25;;;;;;;6.47;3.85;;;15.10;99.90;;;;;;4994544;28;20222;-78
2023/08/10 03:26:52;;;;;;;5.60;3.55;;;15.20;99.90;;;;;;5046995;28;20691;-78
2023/08/10 03:29:21;;;;;;;7.53;4.15;;;15.40;99.90;;;;;;5009983;28;20229;-78
2023/08/10 03:31:49;;;;;;;4.80;3.88;;;15.40;99.90;;;;;;5006164;28;20204;-78
2023/08/10 03:34:16;;;;;;;5.93;4.05;;;15.30;99.90;;;;;;5015833;28;20198;-78
2023/08/10 03:36:44;;;;;;;6.32;4.20;;;15.30;99.90;;;;;;4993734;28;20611;-78
2023/08/10 03:39:11;;;;;;;5.20;3.80;;;15.20;99.90;;;;;;4995323;28;20221;-78
2023/08/10 03:41:41;;;;;;;4.97;3.53;;;15.30;99.90;;;;;;4996091;28;20192;-78
2023/08/10 03:44:08;;;;;;;6.95;3.67;;;15.50;99.90;;;;;;5010515;28;20193;-78
2023/08/10 03:46:36;;;;;;;7.13;4.53;;;15.40;99.90;;;;;;5005943;28;20570;-78
2023/08/10 03:49:03;;;;;;;6.45;3.75;;;15.30;99.90;;;;;;4990122;28;20250;-78
2023/08/10 03:51:31;;;;;;;6.10;3.92;;;15.30;99.90;;;;;;4995070;28;20214;-78
2023/08/10 03:53:58;;;;;;;13.73;4.50;;;15.30;99.90;;;;;;5008617;28;20195;-78
2023/08/10 03:56:26;;;;;;;7.05;4.00;;;15.20;99.90;;;;;;4994756;28;20208;-78
2023/08/10 03:58:56;;;;;;;5.75;4.05;;;15.20;99.90;;;;;;4994864;28;20222;-78
2023/08/10 04:01:23;;;;;;;7.30;3.80;;;15.10;99.90;;;;;;4997307;28;20204;-78
2023/08/10 04:03:51;;;;;;;8.38;3.95;;;15.20;99.90;;;;;;5019316;28;20210;-78
2023/08/10 04:06:18;;;;;;;6.40;4.00;;;15.40;99.90;;;;;;4997816;28;20191;-78
2023/08/10 04:08:46;;;;;;;5.22;3.60;;;15.40;99.90;;;;;;5000952;28;20716;-78
2023/08/10 04:11:13;;;;;;;6.40;3.97;;;15.50;99.90;;;;;;4996208;28;20208;-78
2023/08/10 04:13:40;;;;;;;3.58;3.28;;;15.40;99.90;;;;;;5012322;28;20195;-78
2023/08/10 04:16:10;;;;;;;7.32;4.55;;;15.40;99.90;;;;;;5014339;28;20226;-78
2023/08/10 04:18:37;;;;;;;4.90;3.20;;;15.30;99.90;;;;;;4998493;28;20206;-78
2023/08/10 04:21:05;;;;;;;4.70;3.40;;;15.10;99.90;;;;;;5012356;28;20661;-78
2023/08/10 04:23:32;;;;;;;8.15;4.10;;;15.00;99.90;;;;;;5014168;28;20210;-78
2023/08/10 04:26:00;;;;;;;5.88;3.75;;;15.10;99.90;;;;;;5013992;28;20199;-78
2023/08/10 04:28:27;;;;;;;7.88;3.83;;;15.10;99.90;;;;;;4994538;28;20208;-78
2023/08/10 04:30:54;;;;;;;6.78;3.97;;;15.10;99.90;;;;;;5004565;28;20210;-78
2023/08/10 04:33:23;;;;;;;5.35;3.40;;;15.00;99.90;;;;;;5022055;28;20204;-78
2023/08/10 04:35:50;;;;;;;12.35;4.03;;;15.00;99.90;;;;;;5006196;28;20207;-78
2023/08/10 04:38:18;;;;;;;5.72;3.78;;;15.00;99.90;;;;;;5015620;28;20205;-78
2023/08/10 04:40:45;;;;;;;7.07;3.95;;;15.10;99.90;;;;;;5008262;28;20655;-78
2023/08/10 04:43:13;;;;;;;8.60;4.45;;;15.00;99.90;;;;;;5006922;28;20554;-78
2023/08/10 04:45:41;;;;;;;5.55;3.70;;;15.00;99.90;;;;;;4993878;28;20210;-79
2023/08/10 04:48:10;;;;;;;4.45;3.58;;;15.10;99.90;;;;;;4991231;28;20204;-78
2023/08/10 04:50:38;;;;;;;8.82;3.90;;;15.10;99.90;;;;;;5011174;28;20227;-78
2023/08/10 04:53:06;;;;;;;8.43;3.53;;;15.00;99.90;;;;;;5014494;28;20207;-78
2023/08/10 04:55:33;;;;;;;4.60;3.70;;;15.00;99.90;;;;;;5004976;28;20231;-78
2023/08/10 04:58:01;;;;;;;6.35;3.72;;;15.00;99.90;;;;;;4987295;28;20230;-77
2023/08/10 05:00:28;;;;;;;6.35;3.70;;;15.10;99.90;;;;;;5004903;28;20227;-78
2023/08/10 05:02:56;;;;;;;8.82;3.80;;;15.10;99.90;;;;;;5009015;28;20677;-78
2023/08/10 05:05:23;;;;;;;6.45;3.80;;;15.20;99.90;;;;;;5010688;28;20553;-78
2023/08/10 05:07:52;;;;;;;5.10;3.80;;;15.20;99.90;;;;;;5002499;28;20203;-78
2023/08/10 05:10:20;;;;;;;7.75;4.10;;;15.20;99.90;;;;;;5009456;28;20223;-77
2023/08/10 05:12:48;;;;;;;10.02;4.20;;;15.00;99.90;;;;;;4995224;28;20208;-78
2023/08/10 05:15:15;;;;;;;5.45;3.97;;;14.90;99.90;;;;;;4996857;28;20747;-78
2023/08/10 05:17:42;;;;;;;5.47;4.10;;;15.00;99.90;;;;;;5023267;28;20239;-77
2023/08/10 05:20:13;;;;;;;6.75;3.85;;;15.20;99.90;;;;;;4990687;28;20220;-78
2023/08/10 05:22:41;;;;;;;8.63;4.78;;;15.20;99.90;;;;;;4989701;28;20721;-78
2023/08/10 05:25:11;;;;;;;6.03;3.72;;;15.30;99.90;;;;;;5023580;28;20216;-78
2023/08/10 05:27:39;;;;;;;5.82;4.07;;;15.40;99.90;;;;;;5009493;28;20205;-78
2023/08/10 05:30:11;;;;;;;9.13;4.13;;;15.40;99.90;;;;;;5006411;28;20227;-78
2023/08/10 05:32:39;;;;;;;5.70;4.35;;;15.00;99.90;;;;;;5009771;28;20203;-78
2023/08/10 05:35:08;;;;;;;7.65;4.30;;;14.90;99.90;;;;;;5004347;28;20197;-78
2023/08/10 05:37:36;;;;;;;10.65;4.43;;;15.00;99.90;;;;;;5005167;28;20231;-78
2023/08/10 05:40:09;;;;;;;6.13;4.60;;;15.00;99.90;;;;;;4988147;28;20220;-78
2023/08/10 05:42:38;;;;;;;10.13;4.80;;;15.10;99.90;;;;;;5008756;28;20678;-78
2023/08/10 05:45:08;;;;;;;10.95;5.55;;;15.10;99.90;;;;;;5006707;28;20211;-77
2023/08/10 05:47:36;;;;;;;6.50;4.78;;;15.20;99.90;;;;;;5006332;28;20212;-78
2023/08/10 05:50:04;;;;;;;11.25;5.63;;;15.30;99.90;;;;;;4989561;28;20235;-78
2023/08/10 05:52:32;;;;;;;10.20;5.40;;;15.30;99.90;;;;;;4993316;28;20662;-78
2023/08/10 05:54:59;;;;;;;8.48;5.13;;;15.30;99.90;;;;;;4988240;28;20206;-78
2023/08/10 05:57:27;;;;;;;12.00;5.72;;;15.50;99.90;;;;;;4986717;28;20312;-78
2023/08/10 05:59:55;;;;;;;10.38;5.60;;;15.60;1.00;;;;;;5008125;28;20222;-78
2023/08/10 06:02:23;;;;;;;8.85;5.95;;;15.50;20.20;;;;;;4995045;28;20207;-78
2023/08/10 06:04:50;;;;;;;10.93;5.82;;;15.70;99.90;;;;;;4992379;28;20203;-78
2023/08/10 06:07:18;;;;;;;6.70;5.90;;;15.60;1.00;;;;;;4986581;28;20207;-78
2023/08/10 06:09:45;;;;;;;11.35;6.20;;;15.70;99.90;;;;;;5003878;28;20232;-78
2023/08/10 06:12:13;;;;;;;8.75;5.93;;;16.00;1.00;;;;;;5008058;28;20227;-78
2023/08/10 06:14:40;;;;;;;8.93;5.82;;;16.20;1.00;;;;;;5008923;28;20208;-78
2023/08/10 06:17:09;;;;;;;12.52;4.72;;;16.20;1.00;;;;;;4996276;28;20299;-78
2023/08/10 06:19:37;;;;;;;9.30;4.78;;;15.90;1.00;;;;;;5015863;28;20230;-80
2023/08/10 06:22:04;;;;;;;7.47;4.80;;;15.90;1.00;;;;;;5001343;28;20200;-80
2023/08/10 06:24:32;;;;;;;8.48;4.72;;;15.70;41.60;;;;;;4996339;28;20199;-79
2023/08/10 06:27:00;;;;;;;7.82;4.93;;;15.80;15.20;;;;;;4995461;28;20202;-78
2023/08/10 06:29:28;;;;;;;9.60;4.93;;;15.70;1.00;;;;;;5001977;28;20223;-78
2023/08/10 06:31:56;;;;;;;9.50;4.72;;;15.60;99.90;;;;;;5011577;28;20662;-78
2023/08/10 06:34:25;;;;;;;6.80;4.60;;;15.80;1.00;;;;;;5011706;28;20204;-78
2023/08/10 06:36:53;;;;;;;8.27;5.07;;;15.90;7.40;;;;;;5010794;28;20223;-78
2023/08/10 06:39:21;;;;;;;9.57;4.45;;;15.80;99.90;;;;;;5018668;28;20246;-78
2023/08/10 06:41:49;;;;;;;7.63;4.30;;;16.00;1.00;;;;;;5011697;28;20204;-78
2023/08/10 06:44:20;;;;;;;6.43;3.78;;;16.30;99.90;;;;;;5012510;28;20199;-79
2023/08/10 06:46:48;;;;;;;7.70;3.47;;;16.30;99.90;;;;;;4996358;28;20563;-79
2023/08/10 06:49:16;;;;;;;7.45;3.92;;;16.50;1.00;;;;;;5011672;28;20226;-78
2023/08/10 06:51:45;;;;;;;6.70;4.32;;;16.60;99.90;;;;;;5006557;28;20200;-78
2023/08/10 06:54:13;;;;;;;5.70;3.95;;;16.50;1.00;;;;;;5016408;28;20210;-78
2023/08/10 06:56:40;;;;;;;7.25;3.90;;;16.40;1.00;;;;;;5012386;28;20531;-79
2023/08/10 06:59:08;;;;;;;6.38;3.58;;;16.40;1.00;;;;;;4996641;28;20572;-79
2023/08/10 07:01:35;;;;;;;7.95;3.13;;;16.50;99.90;;;;;;4994005;28;20208;-79
2023/08/10 07:04:03;;;;;;;5.50;2.72;;;16.60;99.90;;;;;;4994640;28;20203;-79
2023/08/10 07:06:31;;;;;;;5.80;2.70;;;16.80;99.90;;;;;;5005666;28;20208;-79
2023/08/10 07:09:00;;;;;;;6.28;3.33;;;17.00;99.90;;;;;;5008056;28;20234;-79
2023/08/10 07:11:27;;;;;;;8.30;3.17;;;17.00;1.00;;;;;;5013679;28;20203;-79
2023/08/10 07:13:54;;;;;;;8.52;2.97;;;17.10;1.00;;;;;;5006404;28;20207;-79
2023/08/10 07:16:23;;;;;;;4.95;2.63;;;17.10;1.00;;;;;;4988956;28;20559;-79
2023/08/10 07:18:50;;;;;;;6.57;2.55;;;17.10;13.30;;;;;;5009539;28;20234;-79
2023/08/10 07:21:18;;;;;;;5.88;2.80;;;17.10;4.30;;;;;;5006935;28;20207;-79
2023/08/10 07:23:46;;;;;;;6.97;3.00;;;16.90;99.90;;;;;;4988749;28;20210;-78
2023/08/10 07:26:15;;;;;;;6.10;2.30;;;17.10;40.70;;;;;;5017990;28;20195;-79
2023/08/10 07:28:44;;;;;;;4.53;2.60;;;17.10;1.00;;;;;;4986955;28;20215;-79
2023/08/10 07:31:12;;;;;;;5.50;2.55;;;17.20;99.90;;;;;;4988623;28;20687;-78
2023/08/10 07:33:39;;;;;;;4.90;2.42;;;17.20;1.00;;;;;;4994790;28;20215;-79
2023/08/10 07:36:07;;;;;;;4.93;2.10;;;17.40;1.00;;;;;;5014571;28;20208;-78
2023/08/10 07:38:35;;;;;;;4.78;2.20;;;17.50;1.00;;;;;;5009183;28;20223;-78
2023/08/10 07:41:02;;;;;;;5.28;2.03;;;17.40;1.00;;;;;;4992738;28;20191;-78
2023/08/10 07:43:31;;;;;;;5.43;1.88;;;17.20;1.00;;;;;;4994430;28;20565;-78
2023/08/10 07:45:58;;;;;;;4.35;2.10;;;17.10;99.90;;;;;;5011890;28;20568;-79
2023/08/10 07:48:26;;;;;;;4.68;2.35;;;17.20;9.40;;;;;;4992963;28;20700;-79
2023/08/10 07:50:54;;;;;;;6.63;2.20;;;17.40;99.90;;;;;;4988150;28;20208;-79
2023/08/10 07:53:22;;;;;;;2.10;1.50;;;17.60;99.90;;;;;;5004899;28;20966;-79
2023/08/10 07:55:50;;;;;;;5.38;1.90;;;17.40;99.90;;;;;;4993640;28;20204;-79
2023/08/10 07:58:17;;;;;;;4.63;2.13;;;17.50;41.10;;;;;;4991282;28;20234;-78
2023/08/10 08:00:46;;;;;;;3.60;1.70;;;17.40;99.90;;;;;;4995649;28;20231;-79
2023/08/10 08:03:13;;;;;;;3.10;1.75;;;17.60;1.00;;;;;;4997772;28;20199;-79
2023/08/10 08:05:41;;;;;;;3.03;1.90;;;17.70;1.00;;;;;;5021728;28;20208;-79
2023/08/10 08:08:08;;;;;;;3.83;1.95;;;17.70;1.00;;;;;;4994303;28;20207;-79
2023/08/10 08:10:36;;;;;;;3.88;1.90;;;17.90;1.00;;;;;;4992556;28;20220;-78
2023/08/10 08:13:06;;;;;;;5.78;2.08;;;17.70;1.00;;;;;;5009982;28;20681;-78
2023/08/10 08:15:34;;;;;;;5.35;2.17;;;17.70;56.40;;;;;;5010868;28;20215;-78
2023/08/10 08:18:42;;;;;;;4.82;2.17;;;17.70;37.10;;;;;;5005183;28;20246;-81
2023/08/10 08:21:11;;;;;;;5.85;2.35;;;17.70;1.00;;;;;;5015377;28;20192;-81
2023/08/10 08:23:38;;;;;;;5.13;2.10;;;17.70;36.00;;;;;;5023299;28;20208;-81
2023/08/10 08:26:07;;;;;;;4.22;1.95;;;17.80;22.70;;;;;;5022105;28;20206;-81
2023/08/10 08:28:34;;;;;;;3.75;1.88;;;18.00;1.00;;;;;;5016162;28;20199;-81
2023/08/10 08:31:02;;;;;;;4.13;1.98;;;18.00;99.90;;;;;;4997270;28;20214;-79
2023/08/10 08:33:30;;;;;;;4.35;1.83;;;18.10;99.90;;;;;;4996041;28;20546;-79
2023/08/10 08:35:58;;;;;;;3.45;1.60;;;18.30;99.90;;;;;;5023260;28;20205;-79
2023/08/10 08:38:29;;;;;;;5.03;2.13;;;18.30;99.90;;;;;;4988978;28;20228;-79
2023/08/10 08:40:57;;;;;;;6.68;2.22;;;18.30;99.90;;;;;;5003361;28;20215;-79
2023/08/10 08:43:24;;;;;;;3.75;2.03;;;18.40;99.90;;;;;;5001205;28;20715;-78
2023/08/10 08:45:52;;;;;;;3.25;2.22;;;18.40;99.90;;;;;;5007590;28;20207;-78
2023/08/10 08:48:20;;;;;;;5.20;1.90;;;18.40;99.90;;;;;;5005490;28;20563;-78
2023/08/10 08:50:48;;;;;;;4.60;1.70;;;18.50;99.90;;;;;;4989057;28;20199;-78
2023/08/10 08:53:16;;;;;;;5.60;2.40;;;18.50;99.90;;;;;;5009199;28;20218;-78
2023/08/10 08:55:46;;;;;;;4.65;2.13;;;18.70;99.90;;;;;;5008511;28;20215;-79
2023/08/10 08:58:16;;;;;;;4.95;2.20;;;18.70;99.90;;;;;;4988295;28;20217;-78
2023/08/10 09:00:48;;;;;;;5.40;1.95;;;18.50;99.90;;;;;;5002574;28;20234;-78
2023/08/10 09:03:16;;;;;;;5.55;2.53;;;18.60;99.90;;;;;;5008089;28;20203;-79
2023/08/10 09:05:44;;;;;;;6.45;2.22;;;18.80;99.90;;;;;;5014919;28;20215;-79
2023/08/10 09:08:14;;;;;;;6.68;2.53;;;18.80;99.90;;;;;;4994904;28;20197;-79
2023/08/10 09:10:41;;;;;;;5.47;2.10;;;18.70;99.90;;;;;;5007429;28;20698;-79
2023/08/10 09:13:16;;;;;;;5.70;2.38;;;18.70;99.80;;;;;;5015577;28;20218;-79
2023/08/10 09:15:43;;;;;;;6.75;2.72;;;18.80;99.90;;;;;;5011227;28;20203;-78
2023/08/10 09:18:11;;;;;;;3.22;2.20;;;19.00;99.90;;;;;;5008875;28;20238;-78
2023/08/10 09:20:38;;;;;;;2.42;1.88;;;19.10;99.90;;;;;;4996221;28;20224;-78
2023/08/10 09:23:06;;;;;;;2.88;2.33;;;19.10;99.90;;;;;;4997850;28;20199;-78
2023/08/10 09:25:38;;;;;;;5.90;2.50;;;19.10;99.90;;;;;;5008995;28;20681;-78
2023/08/10 09:28:10;;;;;;;3.95;2.28;;;19.10;99.90;;;;;;5006308;28;20200;-78
2023/08/10 09:30:41;;;;;;;4.57;2.35;;;19.10;99.90;;;;;;5016220;28;20220;-78
2023/08/10 09:33:08;;;;;;;5.32;2.45;;;19.10;99.90;;;;;;4989584;28;20554;-78
2023/08/10 09:35:36;;;;;;;3.47;2.63;;;19.30;99.90;;;;;;5007881;28;20193;-78
2023/08/10 09:38:04;;;;;;;4.55;2.60;;;19.20;99.90;;;;;;5011373;28;20587;-78
2023/08/10 09:40:32;;;;;;;5.43;2.42;;;19.30;94.80;;;;;;5006931;28;20231;-78
2023/08/10 09:43:00;;;;;;;5.65;2.78;;;19.40;99.90;;;;;;5020218;28;20203;-78
2023/08/10 09:45:27;;;;;;;3.65;2.30;;;19.40;99.90;;;;;;5012861;28;20196;-78
2023/08/10 09:47:56;;;;;;;4.80;3.42;;;19.50;99.90;;;;;;5009232;28;20195;-78
2023/08/10 09:50:24;;;;;;;3.55;2.40;;;19.50;55.80;;;;;;5014969;28;20701;-78
2023/08/10 09:52:52;;;;;;;7.70;2.60;;;19.50;29.70;;;;;;4998895;28;20200;-79
2023/08/10 09:55:20;;;;;;;4.68;2.35;;;19.30;45.50;;;;;;5037968;28;20571;-77
2023/08/10 09:57:49;;;;;;;4.25;2.17;;;19.50;88.30;;;;;;4993386;28;20214;-78
2023/08/10 10:00:19;;;;;;;5.55;2.60;;;19.60;25.60;;;;;;5000253;28;20815;-77
2023/08/10 10:02:47;;;;;;;5.93;2.40;;;19.60;46.40;;;;;;5005958;28;20206;-77
2023/08/10 10:05:19;;;;;;;3.88;2.03;;;19.70;26.90;;;;;;5008393;28;20567;-77
2023/08/10 10:07:48;;;;;;;3.38;2.13;;;19.70;25.50;;;;;;4982801;28;20208;-77
2023/08/10 10:10:17;;;;;;;4.70;2.38;;;19.80;50.30;;;;;;5021651;28;20238;-77
2023/08/10 10:12:49;;;;;;;4.82;2.15;;;19.90;33.80;;;;;;4995028;28;20215;-78
2023/08/10 10:15:19;;;;;;;4.65;2.22;;;19.90;14.20;;;;;;5011292;28;20561;-78
2023/08/10 10:17:51;;;;;;;3.67;2.03;;;20.00;62.90;;;;;;5033157;28;20218;-78
2023/08/10 10:20:20;;;;;;;6.07;2.17;;;19.90;1.00;;;;;;5014997;28;20220;-78
2023/08/10 10:22:48;;;;;;;4.93;2.45;;;19.90;1.00;;;;;;4991576;28;20207;-78
2023/08/10 10:25:16;;;;;;;6.97;1.80;;;19.90;1.00;;;;;;4987314;28;20196;-78
2023/08/10 10:27:48;;;;;;;5.25;1.83;;;19.90;1.00;;;;;;5012700;28;20196;-78
2023/08/10 10:30:17;;;;;;;6.65;2.40;;;20.10;1.00;;;;;;5006881;28;20235;-78
2023/08/10 10:32:46;;;;;;;3.70;1.75;;;20.20;1.00;;;;;;5026374;28;20212;-78
2023/08/10 10:35:16;;;;;;;5.13;2.60;;;20.30;1.00;;;;;;5016404;28;20207;-78
2023/08/10 10:37:54;;;;;;;2.40;1.75;;;20.30;1.00;;;;;;5008205;28;20597;-78
2023/08/10 10:40:23;;;;;;;3.53;2.00;;;20.50;1.00;;;;;;4983513;28;20231;-78
2023/08/10 10:43:07;;;;;;;2.60;2.00;;;20.60;1.00;;;;;;5005695;28;20212;-78
2023/08/10 10:45:36;;;;;;;3.53;1.58;;;20.70;1.00;;;;;;5010279;28;20243;-78
2023/08/10 10:48:06;;;;;;;2.45;1.90;;;20.80;1.00;;;;;;5019663;28;20670;-78
2023/08/10 10:50:34;;;;;;;2.15;1.90;;;20.90;1.00;;;;;;5011478;28;20688;-78
2023/08/10 10:53:06;;;;;;;2.97;1.58;;;21.10;1.00;;;;;;5008546;28;21176;-79
2023/08/10 10:55:44;;;;;;;2.65;1.77;;;21.20;1.00;;;;;;4995391;28;20215;-79
2023/08/10 10:58:13;;;;;;;5.13;2.03;;;21.20;1.00;;;;;;5010559;28;20199;-79
2023/08/10 11:00:42;;;;;;;3.17;1.92;;;21.20;1.00;;;;;;5012438;28;20232;-79
2023/08/10 11:03:13;;;;;;;3.55;2.00;;;21.30;1.00;;;;;;5002217;28;20592;-79
2023/08/10 11:05:41;;;;;;;5.22;2.22;;;21.50;1.00;;;;;;4997344;28;20215;-79
2023/08/10 11:08:12;;;;;;;5.07;2.30;;;21.70;1.00;;;;;;5001518;28;20196;-79
2023/08/10 11:10:42;;;;;;;3.90;1.80;;;21.70;1.00;;;;;;5010160;28;20229;-79
2023/08/10 11:13:10;;;;;;;7.78;2.50;;;21.60;1.00;;;;;;5015012;28;20207;-78
2023/08/10 11:15:38;;;;;;;2.70;1.23;;;21.80;1.00;;;;;;4993879;28;20207;-78
2023/08/10 11:18:10;;;;;;;3.00;1.52;;;21.70;1.00;;;;;;5010946;28;20199;-78
2023/08/10 11:20:43;;;;;;;2.97;1.75;;;21.90;1.00;;;;;;5005037;28;20230;-78
2023/08/10 11:23:15;;;;;;;3.92;1.67;;;21.90;1.00;;;;;;5007776;28;20693;-78
2023/08/10 11:25:49;;;;;;;6.25;2.10;;;22.10;1.00;;;;;;4996583;28;20199;-78
2023/08/10 11:28:20;;;;;;;3.80;1.85;;;22.10;1.00;;;;;;5013546;28;20541;-78
2023/08/10 11:30:49;;;;;;;3.08;1.42;;;21.60;1.00;;;;;;4994752;28;20199;-78
2023/08/10 11:33:16;;;;;;;3.25;1.60;;;22.00;1.00;;;;;;4996459;28;20215;-78
2023/08/10 11:35:49;;;;;;;2.85;1.67;;;22.00;1.00;;;;;;5002909;28;20206;-78
2023/08/10 11:38:19;;;;;;;2.70;1.63;;;22.30;1.00;;;;;;5012117;28;20688;-78
2023/08/10 11:40:47;;;;;;;2.63;1.50;;;22.40;1.00;;;;;;4992720;28;20227;-78
2023/08/10 11:43:19;;;;;;;4.32;2.47;;;22.20;1.00;;;;;;4993257;28;20690;-78
2023/08/10 11:45:48;;;;;;;2.53;1.80;;;22.20;1.00;;;;;;5005088;28;20206;-78
2023/08/10 11:48:19;;;;;;;3.50;1.90;;;21.90;1.00;;;;;;5011468;28;20196;-78
2023/08/10 11:50:46;;;;;;;2.15;1.50;;;21.90;1.00;;;;;;5010156;28;20223;-79
2023/08/10 11:53:15;;;;;;;1.70;1.60;;;21.90;1.00;;;;;;5009329;28;20199;-78
2023/08/10 11:55:46;;;;;;;2.05;1.50;;;22.10;1.00;;;;;;5013893;28;20196;-79
2023/08/10 11:58:15;;;;;;;3.47;1.30;;;22.10;1.00;;;;;;5009011;28;20202;-78
2023/08/10 12:00:43;;;;;;;4.68;2.10;;;22.30;1.00;;;;;;4992924;28;20232;-78
2023/08/10 12:03:16;;;;;;;2.15;1.70;;;22.50;1.00;;;;;;5013088;28;20207;-78
2023/08/10 12:05:46;;;;;;;2.90;1.95;;;22.70;1.00;;;;;;5009673;28;20204;-78
2023/08/10 12:08:15;;;;;;;2.97;1.70;;;22.90;1.00;;;;;;5006710;28;20207;-78
2023/08/10 12:10:47;;;;;;;3.95;1.90;;;23.10;1.00;;;;;;5038968;28;20216;-79
2023/08/10 12:13:17;;;;;;;2.67;1.50;;;23.20;1.00;;;;;;4989503;28;20204;-78
2023/08/10 12:15:46;;;;;;;3.63;1.90;;;22.90;1.00;;;;;;5030262;28;20681;-77
2023/08/10 12:18:15;;;;;;;2.95;1.65;;;22.80;1.00;;;;;;5003386;28;20672;-80
2023/08/10 12:20:43;;;;;;;8.98;4.68;;;22.40;1.00;;;;;;4998824;28;20231;-78
2023/08/10 12:23:10;;;;;;;2.13;1.75;;;22.40;1.00;;;;;;5007933;28;20203;-78
2023/08/10 12:25:38;;;;;;;2.53;1.95;;;22.40;1.00;;;;;;4996907;28;20210;-78
2023/08/10 12:28:08;;;;;;;2.25;1.70;;;22.80;1.00;;;;;;5003599;28;20199;-79
2023/08/10 12:30:36;;;;;;;3.88;1.42;;;23.00;1.00;;;;;;4996727;28;20694;-79
2023/08/10 12:33:04;;;;;;;3.28;1.92;;;23.40;1.00;;;;;;5026291;28;20202;-78
2023/08/10 12:35:32;;;;;;;2.55;2.08;;;23.90;1.00;;;;;;4997952;28;20568;-80
2023/08/10 12:37:59;;;;;;;2.53;1.65;;;23.70;1.00;;;;;;5024001;28;20202;-78
2023/08/10 12:40:27;;;;;;;2.92;1.65;;;24.10;1.00;;;;;;4997475;28;20235;-77
2023/08/10 12:42:54;;;;;;;2.42;1.90;;;24.40;1.00;;;;;;5007956;28;20206;-79
2023/08/10 12:45:23;;;;;;;3.63;1.80;;;24.10;1.00;;;;;;5002349;28;20576;-80
2023/08/10 12:47:50;;;;;;;3.60;2.20;;;23.70;1.00;;;;;;5019900;28;20195;-78
2023/08/10 12:50:19;;;;;;;3.70;1.67;;;23.70;1.00;;;;;;5013991;28;20216;-78
2023/08/10 12:52:48;;;;;;;3.00;2.30;;;23.40;1.00;;;;;;5006902;28;20208;-78
2023/08/10 12:55:16;;;;;;;3.10;1.60;;;23.40;1.00;;;;;;5023847;28;20202;-78
2023/08/10 12:57:44;;;;;;;2.75;2.00;;;23.20;1.00;;;;;;5000923;28;20215;-78